createdAt,value
2019-01-19T00:03:44.987Z,98264.73
2019-01-19T00:08:00.968Z,98261.17
2019-01-19T00:12:20.090Z,98254.41
2019-01-19T00:16:43.080Z,98251.29
2019-01-19T00:21:07.621Z,98253.19
2019-01-19T00:25:55.240Z,98247.10
2019-01-19T00:30:08.036Z,98246.52
2019-01-19T00:34:42.868Z,98247.16
2019-01-19T00:39:07.099Z,98241.94
2019-01-19T00:43:13.905Z,98234.22
2019-01-19T00:47:43.606Z,98238.51
2019-01-19T00:52:12.974Z,98241.63
2019-01-19T00:56:50.180Z,98237.81
2019-01-19T01:01:00.464Z,98240.72
2019-01-19T01:05:11.354Z,98241.77
2019-01-19T01:09:42.205Z,98244.97
2019-01-19T01:14:09.997Z,98248.69
2019-01-19T01:18:48.194Z,98240.20
2019-01-19T01:23:14.773Z,98245.16
2019-01-19T01:27:25.116Z,98251.60
2019-01-19T01:31:38.158Z,98245.43
2019-01-19T01:36:12.241Z,98236.67
2019-01-19T01:40:37.349Z,98241.42
2019-01-19T01:45:02.264Z,98238.31
2019-01-19T01:49:12.544Z,98238.34
2019-01-19T01:53:37.643Z,98229.23
2019-01-19T01:57:48.026Z,98231.45
2019-01-19T02:02:13.244Z,98228.92
2019-01-19T02:06:37.912Z,98229.05
2019-01-19T02:11:25.430Z,98227.34
2019-01-19T02:15:47.805Z,98224.92
2019-01-19T02:20:21.665Z,98219.92
2019-01-19T02:24:52.182Z,98221.87
2019-01-19T02:29:36.695Z,98225.28
2019-01-19T02:34:01.663Z,98227.43
2019-01-19T02:38:32.836Z,98223.22
2019-01-19T02:43:02.351Z,98217.03
2019-01-19T02:47:27.000Z,98215.84
2019-01-19T02:51:48.816Z,98210.78
2019-01-19T02:56:07.975Z,98206.19
2019-01-19T03:00:46.921Z,98200.84
2019-01-19T03:05:02.907Z,98193.02
2019-01-19T03:09:35.357Z,98188.70
2019-01-19T03:13:54.146Z,98185.86
2019-01-19T03:18:28.451Z,98190.36
2019-01-19T03:22:41.557Z,98196.06
2019-01-19T03:27:14.136Z,98186.28
2019-01-19T03:31:40.723Z,98186.87
2019-01-19T03:36:04.501Z,98187.16
2019-01-19T03:40:38.119Z,98185.54
2019-01-19T03:45:23.943Z,98184.41
2019-01-19T03:49:39.628Z,98179.46
2019-01-19T03:54:13.346Z,98172.74
2019-01-19T03:58:28.561Z,98171.16
2019-01-19T04:03:02.641Z,98168.17
2019-01-19T04:07:24.539Z,98163.91
2019-01-19T04:12:11.969Z,98163.89
2019-01-19T04:16:42.926Z,98159.88
2019-01-19T04:21:19.281Z,98153.31
2019-01-19T04:25:29.911Z,98156.26
2019-01-19T04:29:35.578Z,98155.36
2019-01-19T04:33:41.341Z,98155.53
2019-01-19T04:37:47.013Z,98155.85
2019-01-19T04:41:52.699Z,98157.37
2019-01-19T04:45:58.415Z,98153.34
2019-01-19T04:50:04.855Z,98156.37
2019-01-19T04:54:10.611Z,98147.88
2019-01-19T04:58:16.296Z,98141.73
2019-01-19T05:02:22.012Z,98140.20
2019-01-19T05:06:30.576Z,98137.98
2019-01-19T05:10:35.648Z,98141.70
2019-01-19T05:14:41.395Z,98138.12
2019-01-19T05:18:47.091Z,98130.30
2019-01-19T05:22:52.790Z,98127.88
2019-01-19T05:26:58.457Z,98120.84
2019-01-19T05:31:04.378Z,98120.94
2019-01-19T05:35:10.219Z,98116.70
2019-01-19T05:39:15.907Z,98114.72
2019-01-19T05:43:21.613Z,98116.73
2019-01-19T05:47:27.271Z,98118.19
2019-01-19T05:51:32.951Z,98113.85
2019-01-19T05:55:38.750Z,98117.27
2019-01-19T05:59:44.428Z,98115.55
2019-01-19T06:03:50.091Z,98116.12
2019-01-19T06:07:55.812Z,98117.41
2019-01-19T06:12:03.218Z,98115.06
2019-01-19T06:16:08.906Z,98114.59
2019-01-19T06:20:17.202Z,98115.91
2019-01-19T06:24:22.878Z,98111.36
2019-01-19T06:28:28.562Z,98111.20
2019-01-19T06:32:34.255Z,98101.98
2019-01-19T06:36:39.987Z,98102.20
2019-01-19T06:40:45.702Z,98102.72
2019-01-19T06:44:51.370Z,98101.14
2019-01-19T06:48:57.056Z,98095.80
2019-01-19T06:53:02.744Z,98095.27
2019-01-19T06:57:08.507Z,98099.85
2019-01-19T07:01:14.172Z,98103.08
2019-01-19T07:05:19.999Z,98096.68
2019-01-19T07:09:25.687Z,98099.33
2019-01-19T07:13:31.365Z,98098.48
2019-01-19T07:17:37.031Z,98100.83
2019-01-19T07:21:42.794Z,98103.21
2019-01-19T07:25:48.531Z,98102.08
2019-01-19T07:29:54.211Z,98106.00
2019-01-19T07:33:59.902Z,98108.35
2019-01-19T07:38:05.569Z,98107.43
2019-01-19T07:42:11.255Z,98107.34
2019-01-19T07:46:17.378Z,98113.47
2019-01-19T07:50:23.065Z,98107.69
2019-01-19T07:54:28.737Z,98107.80
2019-01-19T07:58:34.400Z,98103.07
2019-01-19T08:02:40.235Z,98109.78
2019-01-19T08:06:45.973Z,98104.89
2019-01-19T08:10:51.740Z,98106.38
2019-01-19T08:14:57.408Z,98111.23
2019-01-19T08:19:03.147Z,98117.56
2019-01-19T08:23:08.846Z,98118.09
2019-01-19T08:27:14.548Z,98123.72
2019-01-19T08:31:20.239Z,98120.58
2019-01-19T08:35:26.012Z,98119.64
2019-01-19T08:39:31.766Z,98120.19
2019-01-19T08:43:39.155Z,98119.73
2019-01-19T08:47:44.853Z,98114.83
2019-01-19T08:51:50.556Z,98111.82
2019-01-19T08:55:56.293Z,98113.42
2019-01-19T09:00:01.949Z,98108.00
2019-01-19T09:04:07.700Z,98107.05
2019-01-19T09:08:13.390Z,98104.88
2019-01-19T09:12:19.211Z,98104.27
2019-01-19T09:16:24.948Z,98112.81
2019-01-19T09:20:30.851Z,98107.48
2019-01-19T09:24:36.537Z,98110.70
2019-01-19T09:28:42.239Z,98109.44
2019-01-19T09:32:48.197Z,98112.83
2019-01-19T09:36:53.930Z,98109.84
2019-01-19T09:40:59.736Z,98111.22
2019-01-19T09:45:10.770Z,98106.52
2019-01-19T09:49:16.655Z,98112.98
2019-01-19T09:53:22.354Z,98109.39
2019-01-19T09:57:28.088Z,98109.47
2019-01-19T10:10:21.057Z,98102.23
2019-01-19T10:14:26.777Z,98095.98
2019-01-19T10:18:32.702Z,98098.20
2019-01-19T10:22:39.357Z,98099.08
2019-01-19T10:26:45.104Z,98099.77
2019-01-19T10:30:51.577Z,98098.47
2019-01-19T10:35:00.018Z,98092.02
2019-01-19T10:39:08.949Z,98098.15
2019-01-19T10:43:14.628Z,98090.59
2019-01-19T10:47:20.388Z,98096.39
2019-01-19T10:51:26.210Z,98093.13
2019-01-19T10:55:31.975Z,98091.69
2019-01-19T10:59:37.646Z,98082.55
2019-01-19T11:03:43.404Z,98078.04
2019-01-19T11:07:49.808Z,98076.12
2019-01-19T11:11:55.566Z,98070.98
2019-01-19T11:16:01.349Z,98068.73
2019-01-19T11:20:11.822Z,98057.89
2019-01-19T11:24:17.519Z,98050.65
2019-01-19T11:28:23.226Z,98046.50
2019-01-19T11:32:28.924Z,98045.06
2019-01-19T11:36:34.667Z,98036.80
2019-01-19T11:40:40.415Z,98038.34
2019-01-19T11:44:46.111Z,98032.38
2019-01-19T11:48:51.807Z,98033.94
2019-01-19T11:52:57.481Z,98021.39
2019-01-19T11:57:03.235Z,98022.50
2019-01-19T12:01:08.963Z,98017.33
2019-01-19T12:05:14.965Z,98014.77
2019-01-19T12:09:21.691Z,98013.64
2019-01-19T12:13:27.364Z,98009.41
2019-01-19T12:17:33.118Z,98006.94
2019-01-19T12:21:38.976Z,97996.77
2019-01-19T12:25:44.750Z,97995.63
2019-01-19T12:29:50.510Z,97981.64
2019-01-19T12:33:56.179Z,97978.39
2019-01-19T12:38:02.887Z,97985.39
2019-01-19T12:42:08.593Z,97984.03
2019-01-19T12:46:14.592Z,97979.72
2019-01-19T12:50:24.152Z,97986.20
2019-01-19T12:54:29.919Z,97986.80
2019-01-19T12:58:35.653Z,97975.64
2019-01-19T13:02:41.341Z,97974.11
2019-01-19T13:06:47.537Z,97967.56
2019-01-19T13:11:12.427Z,97965.95
2019-01-19T13:15:28.553Z,97960.51
2019-01-19T13:19:44.441Z,97953.80
2019-01-19T13:24:18.670Z,97949.19
2019-01-19T13:29:10.668Z,97946.38
2019-01-19T13:33:29.377Z,97937.83
2019-01-19T13:37:45.229Z,97940.73
2019-01-19T13:42:25.299Z,97939.75
2019-01-19T13:46:47.311Z,97935.30
2019-01-19T13:51:06.358Z,97931.94
2019-01-19T13:55:34.624Z,97928.17
2019-01-19T13:59:53.598Z,97927.59
2019-01-19T14:04:20.080Z,97927.81
2019-01-19T14:08:49.196Z,97916.57
2019-01-19T14:13:08.500Z,97922.63
2019-01-19T14:17:43.867Z,97921.64
2019-01-19T14:27:16.391Z,97914.25
2019-01-19T14:31:47.357Z,97915.70
2019-01-19T14:36:24.559Z,97904.13
2019-01-19T14:40:54.041Z,97908.39
2019-01-19T14:45:48.605Z,97900.89
2019-01-19T14:50:16.594Z,97899.57
2019-01-19T14:54:29.557Z,97903.73
2019-01-19T14:58:51.266Z,97895.60
2019-01-19T15:03:22.373Z,97888.66
2019-01-19T15:07:41.602Z,97898.91
2019-01-19T15:12:06.857Z,97894.07
2019-01-19T15:16:48.833Z,97887.78
2019-01-19T15:21:10.610Z,97882.77
2019-01-19T15:25:35.610Z,97884.66
2019-01-19T15:30:00.738Z,97881.56
2019-01-19T15:34:28.646Z,97877.11
2019-01-19T15:39:17.785Z,97878.41
2019-01-19T15:43:47.028Z,97871.43
2019-01-19T15:48:34.414Z,97874.37
2019-01-19T15:53:00.300Z,97876.09
2019-01-19T15:57:28.261Z,97867.96
2019-01-19T16:02:20.333Z,97863.97
2019-01-19T16:06:39.601Z,97866.03
2019-01-19T16:11:04.585Z,97868.80
2019-01-19T16:15:44.669Z,97863.80
2019-01-19T16:20:09.305Z,97861.80
2019-01-19T16:24:41.936Z,97864.77
2019-01-19T16:29:12.330Z,97861.16
2019-01-19T16:33:43.514Z,97856.83
2019-01-19T16:38:31.275Z,97853.63
2019-01-19T16:42:58.085Z,97850.30
2019-01-19T16:47:35.206Z,97845.53
2019-01-19T16:52:22.865Z,97845.08
2019-01-19T16:56:58.413Z,97837.92
2019-01-19T17:01:29.362Z,97843.31
2019-01-19T17:05:45.204Z,97844.47
2019-01-19T17:09:57.937Z,97845.94
2019-01-19T17:14:19.918Z,97847.09
2019-01-19T17:18:32.720Z,97838.52
2019-01-19T17:23:00.732Z,97837.19
2019-01-19T17:27:22.774Z,97840.16
2019-01-19T17:31:35.998Z,97837.45
2019-01-19T17:35:54.568Z,97834.62
2019-01-19T17:40:52.613Z,97839.41
2019-01-19T17:45:15.488Z,97838.69
2019-01-19T17:49:40.654Z,97839.89
2019-01-19T17:54:23.486Z,97838.78
2019-01-19T17:59:04.974Z,97840.33
2019-01-19T18:03:20.856Z,97836.70
2019-01-19T18:07:40.007Z,97835.55
2019-01-19T18:12:07.908Z,97827.95
2019-01-19T18:16:37.168Z,97831.33
2019-01-19T18:21:02.304Z,97829.27
2019-01-19T18:25:36.322Z,97822.97
2019-01-19T18:35:44.895Z,97816.70
2019-01-19T18:40:49.399Z,97825.03
2019-01-19T18:45:02.338Z,97819.38
2019-01-19T18:49:46.888Z,97813.00
2019-01-19T18:54:02.990Z,97813.94
2019-01-19T18:58:18.987Z,97812.22
2019-01-19T19:02:43.679Z,97811.44
2019-01-19T19:07:29.966Z,97806.91
2019-01-19T19:11:56.635Z,97801.17
2019-01-19T19:16:25.676Z,97804.27
2019-01-19T19:20:47.661Z,97808.67
2019-01-19T19:25:09.591Z,97811.72
2019-01-19T19:29:28.476Z,97816.79
2019-01-19T19:34:04.070Z,97812.60
2019-01-19T19:38:20.952Z,97811.30
2019-01-19T19:43:05.178Z,97801.36
2019-01-19T19:47:53.252Z,97801.79
2019-01-19T19:52:02.341Z,97804.69
2019-01-19T19:56:06.367Z,97798.61
2019-01-19T20:00:12.860Z,97807.94
2019-01-19T20:04:18.723Z,97806.81
2019-01-19T20:08:24.494Z,97808.44
2019-01-19T20:12:31.170Z,97817.81
2019-01-19T20:16:37.042Z,97819.09
2019-01-19T20:20:42.752Z,97811.89
2019-01-19T20:24:48.523Z,97806.68
2019-01-19T20:28:54.666Z,97804.92
2019-01-19T20:33:00.437Z,97810.34
2019-01-19T20:37:06.270Z,97805.69
2019-01-19T20:41:11.970Z,97808.28
2019-01-19T20:45:18.324Z,97807.56
2019-01-19T20:49:24.030Z,97797.81
2019-01-19T20:53:29.866Z,97804.16
2019-01-19T20:57:35.700Z,97795.78
2019-01-19T21:01:41.416Z,97801.52
2019-01-19T21:05:47.123Z,97800.59
2019-01-19T21:09:52.824Z,97795.23
2019-01-19T21:13:58.547Z,97795.76
2019-01-19T21:18:04.403Z,97794.81
2019-01-19T21:22:11.224Z,97795.32
2019-01-19T21:26:18.508Z,97789.58
2019-01-19T21:30:24.356Z,97789.16
2019-01-19T21:34:30.073Z,97784.34
2019-01-19T21:38:35.766Z,97785.56
2019-01-19T21:42:50.159Z,97783.20
2019-01-19T21:46:55.895Z,97785.66
2019-01-19T21:51:02.562Z,97783.00
2019-01-19T21:55:10.373Z,97775.28
2019-01-19T21:59:16.058Z,97780.33
2019-01-19T22:03:21.766Z,97786.08
2019-01-19T22:07:27.485Z,97781.22
2019-01-19T22:11:33.181Z,97775.65
2019-01-19T22:15:38.852Z,97779.61
2019-01-19T22:19:44.554Z,97779.34
2019-01-19T22:23:50.238Z,97787.44
2019-01-19T22:27:56.036Z,97779.22
2019-01-19T22:32:01.786Z,97784.77
2019-01-19T22:36:07.561Z,97786.45
2019-01-19T22:40:17.510Z,97781.83
2019-01-19T22:44:23.145Z,97782.45
2019-01-19T22:48:28.929Z,97775.67
2019-01-19T22:52:49.791Z,97778.23
2019-01-19T22:56:56.278Z,97773.57
2019-01-19T23:01:07.140Z,97771.09
2019-01-19T23:05:12.944Z,97769.03
2019-01-19T23:09:18.886Z,97771.88
2019-01-19T23:13:51.876Z,97766.31
2019-01-19T23:17:57.579Z,97765.16
2019-01-19T23:22:48.549Z,97761.48
2019-01-19T23:26:55.527Z,97758.09
2019-01-19T23:31:01.313Z,97757.78
2019-01-19T23:35:08.937Z,97757.44
2019-01-19T23:39:50.924Z,97756.25
2019-01-19T23:43:56.615Z,97763.95
2019-01-19T23:48:02.381Z,97762.03
2019-01-19T23:52:08.129Z,97764.16
2019-01-19T23:56:13.826Z,97760.98
